createdAt,value
2023-02-07T00:01:33.976Z,105.80
2023-02-07T00:04:01.887Z,100.88
2023-02-07T00:06:32.445Z,96.65
2023-02-07T00:09:03.208Z,100.90
2023-02-07T00:11:30.737Z,101.40
2023-02-07T00:13:58.965Z,96.28
2023-02-07T00:16:28.005Z,79.80
2023-02-07T00:18:56.068Z,102.68
2023-02-07T00:21:26.018Z,100.60
2023-02-07T00:23:54.010Z,83.35
2023-02-07T00:26:23.153Z,96.97
2023-02-07T00:28:52.351Z,89.20
2023-02-07T00:31:25.226Z,100.28
2023-02-07T00:33:55.367Z,91.70
2023-02-07T00:36:24.270Z,99.25
2023-02-07T00:38:51.690Z,85.90
2023-02-07T00:41:20.028Z,88.88
2023-02-07T00:43:48.148Z,85.60
2023-02-07T00:46:16.415Z,80.07
2023-02-07T00:48:44.177Z,89.07
2023-02-07T00:51:13.748Z,90.80
2023-02-07T00:53:41.120Z,86.75
2023-02-07T00:56:09.124Z,89.15
2023-02-07T00:58:36.484Z,88.03
2023-02-07T01:01:05.006Z,84.63
2023-02-07T01:03:33.356Z,88.25
2023-02-07T01:06:00.844Z,88.85
2023-02-07T01:08:27.901Z,81.90
2023-02-07T01:10:55.600Z,85.63
2023-02-07T01:13:22.506Z,83.25
2023-02-07T01:15:50.296Z,86.72
2023-02-07T01:18:17.617Z,86.07
2023-02-07T01:20:45.030Z,87.28
2023-02-07T01:23:13.104Z,86.22
2023-02-07T01:25:41.573Z,80.03
2023-02-07T01:28:08.649Z,92.15
2023-02-07T01:30:36.084Z,91.05
2023-02-07T01:33:03.119Z,83.18
2023-02-07T01:35:30.542Z,82.18
2023-02-07T01:38:02.649Z,84.68
2023-02-07T01:40:31.053Z,87.35
2023-02-07T01:42:59.265Z,80.18
2023-02-07T01:45:33.017Z,81.85
2023-02-07T01:48:03.547Z,85.82
2023-02-07T01:50:31.837Z,81.55
2023-02-07T01:53:02.466Z,88.75
2023-02-07T01:55:34.002Z,84.25
2023-02-07T01:58:04.395Z,80.78
2023-02-07T02:00:31.813Z,89.65
2023-02-07T02:02:59.466Z,82.18
2023-02-07T02:05:30.573Z,88.72
2023-02-07T02:07:57.716Z,83.85
2023-02-07T02:10:47.359Z,83.97
2023-02-07T02:13:53.104Z,89.68
2023-02-07T02:16:42.701Z,80.47
2023-02-07T02:19:23.667Z,81.88
2023-02-07T02:22:48.426Z,74.63
2023-02-07T02:25:53.968Z,81.32
2023-02-07T02:28:39.892Z,86.57
2023-02-07T02:31:39.083Z,86.38
2023-02-07T02:34:27.774Z,81.47
2023-02-07T02:37:00.786Z,79.93
2023-02-07T02:39:45.343Z,72.72
2023-02-07T02:42:22.678Z,77.68
2023-02-07T02:45:01.197Z,71.50
2023-02-07T02:47:30.878Z,72.18
2023-02-07T02:49:59.389Z,77.72
2023-02-07T02:52:44.549Z,82.18
2023-02-07T02:55:22.366Z,77.28
2023-02-07T02:58:09.575Z,86.13
2023-02-07T03:00:58.367Z,79.93
2023-02-07T03:03:54.996Z,80.25
2023-02-07T03:06:42.173Z,77.53
2023-02-07T03:09:40.124Z,70.28
2023-02-07T03:12:20.394Z,79.90
2023-02-07T03:14:57.458Z,74.05
2023-02-07T03:17:33.294Z,77.40
2023-02-07T03:20:19.640Z,80.53
2023-02-07T03:22:48.701Z,68.68
2023-02-07T03:25:17.656Z,74.38
2023-02-07T03:27:47.684Z,67.60
2023-02-07T03:30:18.734Z,76.55
2023-02-07T03:32:51.760Z,68.55
2023-02-07T03:35:32.085Z,77.90
2023-02-07T03:38:02.330Z,62.03
2023-02-07T03:40:35.950Z,68.50
2023-02-07T03:43:08.412Z,67.22
2023-02-07T03:45:36.152Z,62.10
2023-02-07T03:48:03.637Z,67.95
2023-02-07T03:50:30.656Z,73.88
2023-02-07T03:52:57.840Z,67.63
2023-02-07T03:55:24.826Z,66.95
2023-02-07T03:57:51.984Z,63.95
2023-02-07T04:00:19.342Z,74.05
2023-02-07T04:02:46.535Z,62.22
2023-02-07T04:05:13.799Z,65.53
2023-02-07T04:07:41.070Z,64.03
2023-02-07T04:10:10.129Z,66.70
2023-02-07T04:12:37.923Z,62.80
2023-02-07T04:15:06.048Z,67.95
2023-02-07T04:17:33.917Z,56.53
2023-02-07T04:20:01.817Z,67.18
2023-02-07T04:22:29.794Z,61.63
2023-02-07T04:24:57.277Z,61.33
2023-02-07T04:27:24.501Z,59.67
2023-02-07T04:29:51.528Z,63.47
2023-02-07T04:32:19.153Z,57.75
2023-02-07T04:34:46.129Z,61.65
2023-02-07T04:37:13.390Z,64.07
2023-02-07T04:39:40.293Z,58.17
2023-02-07T04:42:07.747Z,60.85
2023-02-07T04:44:34.779Z,68.22
2023-02-07T04:47:01.987Z,55.40
2023-02-07T04:49:31.860Z,54.63
2023-02-07T04:52:01.000Z,53.55
2023-02-07T04:54:27.902Z,52.17
2023-02-07T04:56:55.079Z,54.80
2023-02-07T04:59:22.022Z,55.38
2023-02-07T05:01:49.267Z,57.15
2023-02-07T05:04:16.159Z,56.70
2023-02-07T05:06:43.390Z,50.65
2023-02-07T05:09:10.342Z,55.80
2023-02-07T05:11:37.636Z,50.05
2023-02-07T05:14:04.796Z,48.45
2023-02-07T05:16:32.211Z,49.40
2023-02-07T05:18:59.101Z,50.63
2023-02-07T05:21:26.269Z,47.00
2023-02-07T05:23:53.185Z,50.15
2023-02-07T05:26:20.370Z,48.85
2023-02-07T05:28:47.313Z,45.00
2023-02-07T05:31:14.719Z,51.55
2023-02-07T05:33:41.652Z,47.40
2023-02-07T05:36:09.446Z,51.75
2023-02-07T05:38:36.428Z,41.22
2023-02-07T05:41:03.685Z,40.65
2023-02-07T05:43:30.848Z,43.70
2023-02-07T05:45:58.733Z,40.28
2023-02-07T05:48:25.995Z,38.95
2023-02-07T05:50:53.458Z,41.33
2023-02-07T05:53:20.520Z,43.92
2023-02-07T05:55:51.404Z,39.78
2023-02-07T05:58:18.444Z,32.80
2023-02-07T06:00:45.685Z,34.58
2023-02-07T06:03:12.702Z,39.85
2023-02-07T06:05:40.631Z,39.35
2023-02-07T06:08:07.762Z,34.20
2023-02-07T06:10:34.939Z,38.55
2023-02-07T06:13:01.834Z,34.45
2023-02-07T06:15:29.167Z,35.63
2023-02-07T06:18:14.484Z,34.95
2023-02-07T06:20:41.684Z,32.22
2023-02-07T06:23:08.546Z,32.38
2023-02-07T06:25:35.838Z,29.05
2023-02-07T06:28:02.831Z,30.67
2023-02-07T06:30:30.160Z,34.15
2023-02-07T06:32:57.240Z,31.38
2023-02-07T06:35:25.685Z,33.13
2023-02-07T06:37:55.012Z,36.70
2023-02-07T06:40:22.517Z,37.03
2023-02-07T06:42:49.460Z,30.55
2023-02-07T06:45:16.857Z,35.70
2023-02-07T06:47:43.882Z,28.27
2023-02-07T06:50:11.165Z,32.05
2023-02-07T06:52:38.080Z,31.75
2023-02-07T06:55:05.597Z,33.53
2023-02-07T06:57:32.474Z,28.63
2023-02-07T06:59:59.884Z,31.92
2023-02-07T07:02:26.835Z,32.05
2023-02-07T07:04:54.186Z,29.30
2023-02-07T07:07:21.254Z,29.52
2023-02-07T07:09:48.501Z,32.40
2023-02-07T07:12:15.957Z,33.67
2023-02-07T07:14:43.215Z,29.42
2023-02-07T07:17:10.125Z,33.17
2023-02-07T07:19:37.275Z,27.08
2023-02-07T07:22:04.196Z,28.02
2023-02-07T07:24:31.403Z,30.85
2023-02-07T07:26:58.351Z,30.83
2023-02-07T07:29:25.674Z,27.92
2023-02-07T07:31:52.655Z,30.77
2023-02-07T07:34:20.214Z,29.95
2023-02-07T07:36:48.717Z,29.88
2023-02-07T07:39:17.150Z,25.40
2023-02-07T07:41:44.453Z,30.08
2023-02-07T07:44:18.846Z,27.45
2023-02-07T07:46:45.931Z,32.83
2023-02-07T07:49:13.364Z,28.13
2023-02-07T07:51:40.310Z,27.10
2023-02-07T07:54:07.598Z,24.65
2023-02-07T07:56:35.553Z,29.42
2023-02-07T07:59:06.114Z,29.42
2023-02-07T08:01:35.933Z,24.20
2023-02-07T08:04:03.917Z,27.38
2023-02-07T08:06:31.819Z,26.27
2023-02-07T08:08:58.985Z,28.02
2023-02-07T08:11:25.921Z,27.52
2023-02-07T08:13:53.301Z,25.45
2023-02-07T08:16:20.294Z,27.15
2023-02-07T08:18:47.610Z,25.30
2023-02-07T08:21:14.575Z,28.98
2023-02-07T08:23:41.861Z,23.98
2023-02-07T08:26:08.930Z,27.42
2023-02-07T08:28:36.461Z,26.50
2023-02-07T08:31:05.365Z,21.73
2023-02-07T08:33:33.336Z,26.55
2023-02-07T08:36:00.735Z,31.85
2023-02-07T08:38:28.022Z,27.90
2023-02-07T08:40:55.069Z,27.15
2023-02-07T08:43:22.402Z,27.70
2023-02-07T08:45:49.585Z,30.85
2023-02-07T08:48:18.486Z,26.75
2023-02-07T08:50:45.874Z,25.35
2023-02-07T08:53:13.084Z,24.60
2023-02-07T08:55:41.864Z,29.33
2023-02-07T08:58:09.039Z,31.58
2023-02-07T09:00:36.658Z,25.63
2023-02-07T09:03:04.852Z,28.23
2023-02-07T09:05:35.278Z,24.30
2023-02-07T09:08:03.392Z,28.00
2023-02-07T09:10:30.489Z,26.90
2023-02-07T09:12:57.872Z,25.95
2023-02-07T09:15:24.976Z,26.35
2023-02-07T09:17:52.404Z,31.30
2023-02-07T09:20:19.501Z,25.30
2023-02-07T09:23:05.397Z,26.65
2023-02-07T09:25:32.480Z,30.67
2023-02-07T09:27:59.942Z,24.55
2023-02-07T09:30:27.239Z,24.67
2023-02-07T09:32:54.862Z,27.20
2023-02-07T09:35:21.765Z,28.05
2023-02-07T09:37:50.163Z,29.10
2023-02-07T09:40:19.615Z,28.00
2023-02-07T09:42:55.796Z,25.42
2023-02-07T09:45:31.459Z,29.88
2023-02-07T09:48:12.393Z,26.27
2023-02-07T09:50:54.580Z,28.10
2023-02-07T09:53:59.946Z,26.73
2023-02-07T09:56:30.071Z,25.88
2023-02-07T09:59:15.345Z,28.65
2023-02-07T10:01:50.412Z,28.20
2023-02-07T10:04:24.608Z,31.83
2023-02-07T10:06:57.195Z,21.10
2023-02-07T10:09:30.172Z,23.08
2023-02-07T10:12:02.651Z,28.90
2023-02-07T10:14:58.654Z,26.83
2023-02-07T10:17:31.786Z,28.13
2023-02-07T10:20:01.887Z,24.02
2023-02-07T10:23:01.908Z,26.30
2023-02-07T10:25:41.551Z,26.10
2023-02-07T10:28:14.576Z,29.63
2023-02-07T10:30:52.562Z,24.27
2023-02-07T10:33:30.594Z,22.70
2023-02-07T10:36:03.513Z,24.75
2023-02-07T10:38:42.189Z,26.98
2023-02-07T10:41:17.396Z,28.52
2023-02-07T10:43:47.191Z,29.42
2023-02-07T10:46:20.723Z,21.52
2023-02-07T10:48:48.571Z,23.98
2023-02-07T10:51:26.663Z,24.15
2023-02-07T10:54:20.904Z,23.83
2023-02-07T10:56:57.797Z,19.85
2023-02-07T10:59:48.078Z,27.95
2023-02-07T11:02:31.846Z,24.90
2023-02-07T11:05:01.940Z,22.33
2023-02-07T11:07:39.397Z,21.83
2023-02-07T11:10:23.516Z,21.40
2023-02-07T11:12:56.462Z,25.42
2023-02-07T11:15:31.925Z,26.52
2023-02-07T11:17:59.226Z,23.00
2023-02-07T11:20:34.159Z,22.83
2023-02-07T11:23:06.844Z,26.33
2023-02-07T11:25:40.920Z,24.88
2023-02-07T11:28:35.675Z,22.33
2023-02-07T11:31:10.234Z,23.33
2023-02-07T11:33:37.952Z,25.45
2023-02-07T11:36:28.505Z,19.58
2023-02-07T11:38:58.642Z,22.25
2023-02-07T11:41:31.534Z,23.55
2023-02-07T11:44:14.536Z,20.10
2023-02-07T11:46:46.553Z,26.85
2023-02-07T11:49:25.846Z,23.65
2023-02-07T11:51:55.283Z,24.52
2023-02-07T11:54:23.394Z,22.50
2023-02-07T11:56:55.844Z,25.60
2023-02-07T11:59:26.869Z,23.33
2023-02-07T12:01:57.291Z,24.40
2023-02-07T12:04:44.952Z,21.50
2023-02-07T12:07:19.144Z,20.50
2023-02-07T12:09:55.549Z,22.23
2023-02-07T12:12:30.236Z,23.50
2023-02-07T12:15:04.074Z,25.27
2023-02-07T12:17:40.194Z,22.10
2023-02-07T12:20:21.695Z,25.17
2023-02-07T12:23:04.866Z,21.17
2023-02-07T12:25:52.533Z,21.40
2023-02-07T12:28:40.727Z,23.02
2023-02-07T12:31:27.576Z,20.70
2023-02-07T12:34:04.628Z,23.75
2023-02-07T12:36:39.451Z,22.75
2023-02-07T12:39:39.654Z,23.45
2023-02-07T12:42:34.227Z,23.90
2023-02-07T12:45:03.278Z,21.77
2023-02-07T12:47:49.021Z,26.20
2023-02-07T12:50:44.012Z,23.50
2023-02-07T12:53:38.711Z,23.60
2023-02-07T12:56:17.495Z,23.10
2023-02-07T12:59:15.461Z,22.77
2023-02-07T13:01:50.258Z,24.58
2023-02-07T13:04:20.775Z,26.55
2023-02-07T13:07:18.561Z,23.80
2023-02-07T13:10:22.157Z,23.67
2023-02-07T13:13:26.620Z,19.15
2023-02-07T13:16:06.469Z,22.73
2023-02-07T13:18:51.289Z,25.98
2023-02-07T13:21:44.242Z,24.17
2023-02-07T13:24:15.492Z,25.92
2023-02-07T13:26:48.790Z,21.63
2023-02-07T13:29:17.033Z,21.48
2023-02-07T13:31:53.405Z,21.45
2023-02-07T13:34:24.957Z,20.83
2023-02-07T13:36:52.803Z,22.50
2023-02-07T13:39:55.115Z,27.00
2023-02-07T13:42:37.308Z,24.50
2023-02-07T13:45:13.426Z,25.15
2023-02-07T13:48:03.146Z,21.70
2023-02-07T13:51:00.908Z,28.45
2023-02-07T13:53:38.856Z,23.70
2023-02-07T13:56:31.323Z,23.17
2023-02-07T13:59:19.865Z,21.40
2023-02-07T14:01:51.543Z,25.67
2023-02-07T14:04:20.033Z,25.92
2023-02-07T14:06:52.922Z,26.80
2023-02-07T14:09:32.687Z,24.33
2023-02-07T14:12:04.711Z,23.13
2023-02-07T14:14:38.136Z,23.08
2023-02-07T14:17:13.829Z,21.75
2023-02-07T14:19:41.149Z,28.38
2023-02-07T14:22:27.059Z,28.25
2023-02-07T14:25:03.533Z,21.52
2023-02-07T14:27:39.284Z,29.77
2023-02-07T14:30:14.442Z,25.48
2023-02-07T14:33:03.446Z,24.98
2023-02-07T14:35:34.475Z,25.92
2023-02-07T14:38:07.534Z,25.42
2023-02-07T14:41:01.861Z,27.17
2023-02-07T14:43:41.448Z,27.38
2023-02-07T14:46:16.717Z,25.70
2023-02-07T14:48:49.052Z,32.83
2023-02-07T14:51:24.969Z,28.35
2023-02-07T14:54:07.298Z,28.70
2023-02-07T14:56:49.586Z,30.15
2023-02-07T14:59:42.860Z,28.17
2023-02-07T15:02:58.893Z,27.60
2023-02-07T15:05:35.209Z,26.17
2023-02-07T15:08:02.444Z,33.33
2023-02-07T15:10:30.913Z,28.88
2023-02-07T15:12:58.831Z,26.00
2023-02-07T15:15:34.885Z,23.05
2023-02-07T15:18:02.757Z,27.20
2023-02-07T15:20:35.608Z,28.15
2023-02-07T15:23:07.369Z,29.33
2023-02-07T15:28:26.758Z,27.63
2023-02-07T15:31:06.626Z,26.23
2023-02-07T15:33:53.891Z,29.23
2023-02-07T15:36:29.655Z,30.40
2023-02-07T15:38:58.570Z,24.67
2023-02-07T15:41:27.305Z,27.35
2023-02-07T15:44:02.984Z,31.02
2023-02-07T15:46:53.777Z,29.67
2023-02-07T15:49:30.574Z,33.63
2023-02-07T15:52:30.392Z,28.77
2023-02-07T15:54:59.974Z,23.30
2023-02-07T15:57:29.530Z,27.45
2023-02-07T16:00:02.648Z,30.45
2023-02-07T16:02:43.725Z,27.45
2023-02-07T16:05:19.642Z,33.15
2023-02-07T16:07:48.000Z,27.40
2023-02-07T16:10:30.916Z,31.95
2023-02-07T16:13:18.352Z,25.40
2023-02-07T16:16:06.854Z,28.48
2023-02-07T16:18:42.606Z,32.25
2023-02-07T16:21:17.284Z,31.27
2023-02-07T16:23:46.414Z,30.60
2023-02-07T16:26:17.544Z,28.73
2023-02-07T16:28:46.625Z,29.73
2023-02-07T16:31:14.026Z,32.22
2023-02-07T16:33:41.137Z,28.85
2023-02-07T16:36:17.581Z,28.42
2023-02-07T16:38:46.522Z,31.60
2023-02-07T16:41:35.403Z,31.77
2023-02-07T16:44:06.945Z,30.38
2023-02-07T16:46:34.545Z,37.03
2023-02-07T16:49:01.515Z,29.92
2023-02-07T16:51:28.692Z,31.05
2023-02-07T16:53:55.762Z,33.20
2023-02-07T16:56:27.831Z,33.53
2023-02-07T16:58:55.137Z,35.22
2023-02-07T17:01:22.728Z,32.92
2023-02-07T17:03:50.014Z,31.10
2023-02-07T17:06:19.858Z,31.23
2023-02-07T17:08:47.296Z,31.20
2023-02-07T17:11:19.505Z,32.75
2023-02-07T17:13:46.535Z,30.13
2023-02-07T17:16:14.138Z,37.45
2023-02-07T17:18:41.790Z,34.20
2023-02-07T17:21:09.299Z,35.63
2023-02-07T17:23:36.540Z,30.77
2023-02-07T17:26:05.691Z,31.05
2023-02-07T17:28:33.003Z,32.83
2023-02-07T17:31:00.280Z,33.25
2023-02-07T17:33:27.321Z,35.28
2023-02-07T17:35:54.632Z,33.63
2023-02-07T17:38:21.554Z,37.95
2023-02-07T17:40:48.885Z,32.42
2023-02-07T17:43:15.908Z,35.50
2023-02-07T17:45:43.138Z,30.73
2023-02-07T17:48:11.985Z,34.58
2023-02-07T17:50:41.279Z,31.55
2023-02-07T17:53:10.198Z,36.05
2023-02-07T17:55:38.650Z,30.38
2023-02-07T17:58:06.092Z,37.80
2023-02-07T18:00:40.007Z,34.70
2023-02-07T18:03:07.761Z,31.50
2023-02-07T18:05:35.603Z,29.70
2023-02-07T18:08:03.122Z,30.95
2023-02-07T18:10:35.198Z,33.85
2023-02-07T18:13:02.549Z,27.83
2023-02-07T18:15:30.384Z,33.70
2023-02-07T18:17:58.643Z,34.70
2023-02-07T18:20:29.723Z,31.45
2023-02-07T18:22:58.968Z,35.65
2023-02-07T18:25:49.234Z,29.90
2023-02-07T18:28:17.258Z,30.83
2023-02-07T18:30:44.835Z,35.40
2023-02-07T18:33:13.511Z,31.85
2023-02-07T18:35:41.134Z,34.33
2023-02-07T18:38:08.470Z,38.35
2023-02-07T18:40:35.426Z,31.23
2023-02-07T18:43:02.616Z,34.33
2023-02-07T18:45:29.541Z,30.55
2023-02-07T18:47:56.819Z,33.13
2023-02-07T18:50:23.744Z,32.92
2023-02-07T18:52:50.894Z,29.65
2023-02-07T18:55:17.921Z,32.85
2023-02-07T18:57:45.121Z,35.55
2023-02-07T19:00:14.425Z,29.05
2023-02-07T19:02:41.720Z,35.20
2023-02-07T19:05:09.374Z,35.25
2023-02-07T19:07:36.610Z,30.58
2023-02-07T19:10:04.060Z,30.60
2023-02-07T19:12:31.488Z,37.47
2023-02-07T19:15:16.750Z,33.10
2023-02-07T19:17:43.940Z,29.70
2023-02-07T19:20:11.261Z,27.67
2023-02-07T19:22:38.887Z,33.25
2023-02-07T19:25:06.321Z,31.25
2023-02-07T19:27:33.947Z,30.15
2023-02-07T19:30:01.392Z,30.33
2023-02-07T19:32:29.039Z,34.80
2023-02-07T19:34:55.908Z,31.20
2023-02-07T19:37:23.137Z,34.53
2023-02-07T19:39:50.148Z,34.13
2023-02-07T19:42:17.383Z,31.10
2023-02-07T19:44:44.326Z,30.58
2023-02-07T19:47:11.587Z,32.22
2023-02-07T19:49:38.795Z,33.58
2023-02-07T19:52:06.065Z,32.80
2023-02-07T19:54:33.029Z,36.20
2023-02-07T19:57:00.284Z,32.67
2023-02-07T19:59:27.222Z,36.75
2023-02-07T20:01:54.771Z,30.83
2023-02-07T20:04:21.764Z,34.78
2023-02-07T20:06:49.171Z,33.97
2023-02-07T20:09:16.142Z,29.95
2023-02-07T20:11:43.424Z,37.28
2023-02-07T20:14:10.552Z,33.38
2023-02-07T20:16:39.395Z,32.58
2023-02-07T20:19:07.782Z,31.38
2023-02-07T20:21:36.397Z,33.30
2023-02-07T20:24:03.779Z,31.15
2023-02-07T20:26:36.579Z,38.90
2023-02-07T20:29:06.911Z,26.92
2023-02-07T20:31:34.327Z,27.02
2023-02-07T20:34:02.337Z,31.33
2023-02-07T20:36:31.226Z,27.35
2023-02-07T20:38:59.315Z,28.88
2023-02-07T20:41:29.553Z,31.50
2023-02-07T20:43:58.069Z,34.60
2023-02-07T20:46:26.920Z,28.67
2023-02-07T20:49:06.034Z,32.35
2023-02-07T20:51:37.253Z,32.58
2023-02-07T20:54:06.653Z,30.92
2023-02-07T20:56:34.957Z,34.00
2023-02-07T20:59:01.906Z,29.92
2023-02-07T21:01:31.813Z,38.92
2023-02-07T21:04:02.097Z,35.38
2023-02-07T21:06:29.778Z,30.97
2023-02-07T21:09:00.710Z,33.50
2023-02-07T21:11:33.866Z,28.73
2023-02-07T21:14:02.707Z,34.35
2023-02-07T21:16:33.203Z,31.92
2023-02-07T21:19:01.124Z,34.97
2023-02-07T21:21:29.362Z,31.92
2023-02-07T21:23:57.330Z,31.40
2023-02-07T21:26:26.696Z,26.48
2023-02-07T21:28:58.768Z,30.90
2023-02-07T21:31:27.744Z,28.77
2023-02-07T21:33:55.289Z,36.83
2023-02-07T21:36:28.212Z,31.00
2023-02-07T21:38:57.011Z,32.78
2023-02-07T21:41:26.090Z,30.95
2023-02-07T21:43:57.475Z,28.80
2023-02-07T21:46:28.110Z,29.85
2023-02-07T21:49:01.559Z,31.13
2023-02-07T21:51:31.132Z,38.08
2023-02-07T21:53:59.130Z,31.88
2023-02-07T21:56:29.187Z,36.00
2023-02-07T21:59:01.054Z,30.75
2023-02-07T22:01:29.447Z,33.67
2023-02-07T22:03:58.888Z,24.35
2023-02-07T22:06:27.173Z,31.30
2023-02-07T22:08:57.000Z,27.38
2023-02-07T22:11:27.681Z,31.95
2023-02-07T22:13:55.068Z,32.60
2023-02-07T22:16:24.247Z,28.67
2023-02-07T22:18:53.471Z,37.70
2023-02-07T22:21:26.170Z,34.95
2023-02-07T22:23:53.863Z,31.17
2023-02-07T22:26:21.881Z,33.75
2023-02-07T22:28:48.997Z,32.70
2023-02-07T22:31:23.051Z,31.38
2023-02-07T22:33:51.808Z,31.05
2023-02-07T22:36:27.402Z,31.25
2023-02-07T22:38:55.597Z,33.00
2023-02-07T22:41:23.355Z,29.45
2023-02-07T22:43:51.084Z,31.38
2023-02-07T22:46:21.552Z,29.55
2023-02-07T22:48:48.684Z,32.28
2023-02-07T22:51:29.657Z,30.70
2023-02-07T22:53:59.600Z,26.67
2023-02-07T22:56:27.862Z,36.30
2023-02-07T22:58:55.799Z,28.27
2023-02-07T23:01:34.812Z,27.88
2023-02-07T23:04:03.862Z,33.83
2023-02-07T23:06:32.674Z,31.23
2023-02-07T23:09:00.129Z,24.88
2023-02-07T23:11:27.589Z,31.98
2023-02-07T23:13:55.264Z,33.58
2023-02-07T23:16:25.419Z,31.05
2023-02-07T23:18:56.458Z,32.28
2023-02-07T23:21:25.855Z,33.63
2023-02-07T23:23:53.364Z,34.53
2023-02-07T23:26:22.956Z,29.50
2023-02-07T23:28:50.740Z,32.30
2023-02-07T23:31:20.529Z,31.58
2023-02-07T23:33:47.894Z,30.45
2023-02-07T23:36:17.591Z,30.67
2023-02-07T23:38:46.342Z,42.20
2023-02-07T23:41:14.323Z,30.80
2023-02-07T23:43:41.585Z,30.88
2023-02-07T23:46:09.853Z,34.95
2023-02-07T23:48:38.592Z,35.55
2023-02-07T23:51:06.953Z,28.98
2023-02-07T23:53:34.431Z,30.75
2023-02-07T23:56:03.268Z,30.98
2023-02-07T23:58:30.246Z,30.48
